Time;durP1;ratioP1;P1;durP2;ratioP2;P2;SDS_P1;SDS_P2;PMS_P1;PMS_P2;Temp;Humidity;BMP_temperature;BMP_pressure;BME280_temperature;BME280_humidity;BME280_pressure;Samples;Min_cycle;Max_cycle;Signal;HPM_P1;HPM_P2
2023/12/19 00:00:59;;;;;;;24.43;16.00;;;4.90;96.00;;;;;;5096026;28;20572;-63
2023/12/19 00:03:27;;;;;;;25.73;15.60;;;4.90;95.90;;;;;;5079464;28;20220;-63
2023/12/19 00:05:54;;;;;;;25.80;15.53;;;4.90;95.90;;;;;;5079785;28;20200;-62
2023/12/19 00:08:21;;;;;;;23.37;15.07;;;4.90;95.90;;;;;;5080784;28;20209;-63
2023/12/19 00:10:48;;;;;;;24.90;15.30;;;4.90;95.90;;;;;;5080720;28;20294;-63
2023/12/19 00:13:16;;;;;;;24.67;15.07;;;4.90;95.90;;;;;;5082114;28;20216;-62
2023/12/19 00:15:43;;;;;;;29.77;16.37;;;4.90;95.80;;;;;;5086346;28;20311;-62
2023/12/19 00:18:10;;;;;;;24.50;15.37;;;4.90;95.80;;;;;;5081347;28;20194;-63
2023/12/19 00:20:38;;;;;;;27.63;14.93;;;4.80;95.70;;;;;;5082205;28;20594;-62
2023/12/19 00:23:05;;;;;;;29.03;15.63;;;4.80;95.70;;;;;;5078182;28;20200;-62
2023/12/19 00:25:32;;;;;;;24.67;14.73;;;4.80;95.70;;;;;;5080116;28;20202;-62
2023/12/19 00:28:00;;;;;;;26.43;14.10;;;4.80;95.70;;;;;;5077957;28;20292;-62
2023/12/19 00:30:27;;;;;;;23.50;14.83;;;4.70;95.70;;;;;;5083192;28;20201;-62
2023/12/19 00:32:55;;;;;;;26.03;14.37;;;4.70;95.80;;;;;;5081490;28;20269;-63
2023/12/19 00:35:22;;;;;;;25.87;14.73;;;4.70;95.80;;;;;;5078198;28;20507;-62
2023/12/19 00:37:49;;;;;;;23.87;14.93;;;4.70;95.80;;;;;;5082086;28;20663;-62
2023/12/19 00:40:16;;;;;;;21.93;14.60;;;4.70;95.80;;;;;;5080270;28;20217;-62
2023/12/19 00:42:44;;;;;;;21.80;14.53;;;4.60;95.70;;;;;;5086463;28;20575;-62
2023/12/19 00:45:11;;;;;;;23.83;14.17;;;4.60;95.70;;;;;;5083824;28;20197;-62
2023/12/19 00:47:41;;;;;;;23.00;13.70;;;4.60;95.80;;;;;;5075912;28;20197;-63
2023/12/19 00:50:09;;;;;;;22.43;14.57;;;4.70;95.80;;;;;;5077145;28;20216;-63
2023/12/19 00:52:36;;;;;;;21.83;13.40;;;4.60;95.70;;;;;;5082551;28;20201;-63
2023/12/19 00:55:03;;;;;;;20.87;13.63;;;4.60;95.70;;;;;;5077557;28;20210;-62
2023/12/19 00:57:32;;;;;;;19.63;13.10;;;4.60;95.70;;;;;;5078672;28;20197;-63
2023/12/19 01:00:00;;;;;;;17.97;12.67;;;4.60;95.80;;;;;;5084407;28;20213;-63
2023/12/19 01:02:31;;;;;;;22.07;13.37;;;4.50;95.70;;;;;;5083707;28;20228;-62
2023/12/19 01:04:58;;;;;;;24.27;14.17;;;4.50;95.70;;;;;;5082197;28;20287;-64
2023/12/19 01:07:25;;;;;;;19.60;13.83;;;4.50;95.70;;;;;;5084400;28;20275;-63
2023/12/19 01:09:53;;;;;;;22.60;12.67;;;4.50;95.80;;;;;;5077477;28;20205;-63
2023/12/19 01:12:20;;;;;;;21.17;13.40;;;4.50;95.80;;;;;;5074301;28;20292;-63
2023/12/19 01:14:47;;;;;;;19.57;12.93;;;4.50;95.80;;;;;;5085005;28;20217;-63
2023/12/19 01:17:14;;;;;;;18.10;12.53;;;4.50;95.80;;;;;;5080763;28;20217;-62
2023/12/19 01:19:41;;;;;;;17.00;11.43;;;4.50;95.80;;;;;;5077597;28;20201;-62
2023/12/19 01:22:09;;;;;;;17.33;11.60;;;4.50;95.80;;;;;;5079414;28;20190;-62
2023/12/19 01:24:36;;;;;;;18.27;12.53;;;4.50;95.70;;;;;;5076688;28;20531;-62
2023/12/19 01:27:03;;;;;;;18.17;12.33;;;4.60;95.80;;;;;;5078943;28;20257;-63
2023/12/19 01:29:30;;;;;;;21.33;12.50;;;4.60;95.80;;;;;;5077493;28;20665;-62
2023/12/19 01:31:58;;;;;;;17.00;11.47;;;4.60;95.80;;;;;;5084598;28;20284;-62
2023/12/19 01:34:25;;;;;;;15.43;11.97;;;4.60;95.80;;;;;;5081160;28;20198;-62
2023/12/19 01:36:54;;;;;;;16.70;11.03;;;4.60;95.70;;;;;;5077665;28;20218;-62
2023/12/19 01:39:24;;;;;;;20.37;12.00;;;4.60;95.70;;;;;;5080365;28;20213;-62
2023/12/19 01:41:51;;;;;;;17.40;11.23;;;4.60;95.70;;;;;;5079800;28;20193;-62
2023/12/19 01:44:19;;;;;;;19.70;11.13;;;4.70;95.70;;;;;;5077501;28;20194;-62
2023/12/19 01:46:47;;;;;;;18.40;11.37;;;4.60;95.70;;;;;;5078354;28;20189;-63
2023/12/19 01:49:14;;;;;;;17.87;10.63;;;4.60;95.70;;;;;;5078731;28;20679;-62
2023/12/19 01:51:42;;;;;;;21.47;11.93;;;4.60;95.70;;;;;;5082185;28;20212;-62
2023/12/19 01:54:10;;;;;;;16.40;11.07;;;4.70;95.70;;;;;;5080276;28;20201;-62
2023/12/19 01:56:38;;;;;;;18.30;10.90;;;4.60;95.60;;;;;;5080861;28;20566;-62
2023/12/19 01:59:06;;;;;;;14.63;10.33;;;4.60;95.50;;;;;;5075728;28;20207;-63
2023/12/19 02:01:34;;;;;;;17.53;10.73;;;4.60;95.50;;;;;;5077583;28;20244;-62
2023/12/19 02:04:02;;;;;;;16.57;10.50;;;4.60;95.40;;;;;;5074685;28;20202;-62
2023/12/19 02:06:34;;;;;;;16.20;10.23;;;4.60;95.40;;;;;;5084248;28;20292;-62
2023/12/19 02:09:02;;;;;;;16.67;11.50;;;4.60;95.30;;;;;;5078163;28;20209;-62
2023/12/19 02:11:29;;;;;;;17.03;10.37;;;4.60;95.30;;;;;;5077841;28;20198;-62
2023/12/19 02:13:58;;;;;;;14.53;9.27;;;4.50;95.30;;;;;;5080453;28;20233;-62
2023/12/19 02:16:26;;;;;;;15.53;10.40;;;4.50;95.30;;;;;;5082088;28;20538;-63
2023/12/19 02:19:04;;;;;;;15.53;9.87;;;4.50;95.30;;;;;;5079940;28;20273;-62
2023/12/19 02:21:32;;;;;;;16.47;10.50;;;4.50;95.30;;;;;;5080745;28;20263;-62
2023/12/19 02:24:00;;;;;;;18.10;10.10;;;4.50;95.30;;;;;;5084360;28;20235;-63
2023/12/19 02:26:27;;;;;;;14.73;9.53;;;4.50;95.40;;;;;;5082614;28;20290;-63
2023/12/19 02:28:55;;;;;;;18.80;9.57;;;4.50;95.30;;;;;;5081439;28;20204;-63
2023/12/19 02:31:22;;;;;;;15.77;9.63;;;4.50;95.30;;;;;;5085714;28;20212;-63
2023/12/19 02:33:49;;;;;;;13.30;9.03;;;4.50;95.30;;;;;;5081928;28;20283;-63
2023/12/19 02:36:16;;;;;;;13.73;9.80;;;4.50;95.30;;;;;;5084041;28;20209;-63
2023/12/19 02:38:44;;;;;;;16.17;10.00;;;4.40;95.30;;;;;;5079962;28;20193;-63
2023/12/19 02:41:11;;;;;;;14.50;8.73;;;4.40;95.20;;;;;;5086386;28;20203;-62
2023/12/19 02:43:38;;;;;;;17.30;9.50;;;4.40;95.10;;;;;;5080564;28;20210;-63
2023/12/19 02:46:21;;;;;;;14.50;9.60;;;4.40;95.20;;;;;;5082926;28;20239;-63
2023/12/19 02:48:49;;;;;;;16.27;9.37;;;4.40;95.20;;;;;;5081804;28;20208;-63
2023/12/19 02:51:21;;;;;;;12.97;8.97;;;4.40;95.20;;;;;;5080760;28;20558;-63
2023/12/19 02:53:48;;;;;;;11.10;8.20;;;4.30;95.20;;;;;;5081042;28;20255;-62
2023/12/19 02:56:15;;;;;;;15.80;8.73;;;4.30;95.20;;;;;;5069378;28;20307;-62
2023/12/19 02:58:43;;;;;;;13.60;8.63;;;4.30;95.10;;;;;;5089610;28;20196;-63
2023/12/19 03:01:10;;;;;;;13.03;8.67;;;4.30;95.20;;;;;;5090780;28;20248;-63
2023/12/19 03:03:43;;;;;;;14.30;9.10;;;4.20;95.10;;;;;;5082401;28;20209;-62
2023/12/19 03:06:13;;;;;;;17.00;9.00;;;4.20;95.10;;;;;;5080881;28;20218;-63
2023/12/19 03:08:47;;;;;;;14.00;9.23;;;4.20;95.10;;;;;;5088216;28;20234;-63
2023/12/19 03:11:15;;;;;;;13.43;8.33;;;4.20;95.20;;;;;;5080897;28;20200;-63
2023/12/19 03:13:42;;;;;;;12.90;8.23;;;4.20;95.20;;;;;;5067443;28;20524;-63
2023/12/19 03:16:09;;;;;;;17.17;8.40;;;4.10;95.20;;;;;;5086455;28;20646;-63
2023/12/19 03:18:36;;;;;;;12.50;8.37;;;4.10;95.20;;;;;;5068213;28;20201;-62
2023/12/19 03:21:03;;;;;;;15.93;8.70;;;4.10;95.20;;;;;;5086051;28;20211;-63
2023/12/19 03:23:32;;;;;;;13.17;8.80;;;4.10;95.20;;;;;;5084834;28;20254;-63
2023/12/19 03:25:59;;;;;;;13.70;8.40;;;4.10;95.30;;;;;;5086734;28;20583;-63
2023/12/19 03:28:26;;;;;;;13.73;8.77;;;4.10;95.30;;;;;;5086305;28;20203;-63
2023/12/19 03:30:53;;;;;;;12.37;8.10;;;4.10;95.40;;;;;;5079827;28;20639;-62
2023/12/19 03:33:20;;;;;;;12.37;8.37;;;4.10;95.70;;;;;;5082635;28;20396;-63
2023/12/19 03:35:48;;;;;;;12.10;8.50;;;4.10;95.50;;;;;;5085892;28;20301;-63
2023/12/19 03:38:16;;;;;;;10.70;7.40;;;4.10;95.50;;;;;;5077376;28;20225;-63
2023/12/19 03:40:43;;;;;;;13.27;7.97;;;4.10;95.40;;;;;;5079403;28;20194;-63
2023/12/19 03:43:10;;;;;;;12.57;8.27;;;4.10;95.40;;;;;;5077326;28;20203;-64
2023/12/19 03:45:37;;;;;;;11.20;7.93;;;4.10;95.40;;;;;;5086952;28;20210;-63
2023/12/19 03:48:04;;;;;;;14.87;8.13;;;4.10;95.50;;;;;;5078460;28;20537;-63
2023/12/19 03:50:32;;;;;;;14.77;8.13;;;4.10;95.50;;;;;;5077433;28;20658;-63
2023/12/19 03:52:59;;;;;;;10.57;7.70;;;4.10;95.50;;;;;;5085165;28;20200;-63
2023/12/19 03:55:26;;;;;;;13.33;8.43;;;4.10;95.50;;;;;;5078667;28;20225;-62
2023/12/19 03:57:53;;;;;;;11.13;7.30;;;4.10;95.60;;;;;;5093340;28;20226;-63
2023/12/19 04:00:20;;;;;;;11.97;7.47;;;4.10;95.50;;;;;;5078171;28;20201;-63
2023/12/19 04:02:47;;;;;;;13.53;7.10;;;4.10;95.50;;;;;;5078425;28;20285;-62
2023/12/19 04:05:14;;;;;;;9.83;7.50;;;4.00;95.40;;;;;;5076884;28;20215;-63
2023/12/19 04:07:41;;;;;;;13.57;7.87;;;4.00;95.40;;;;;;5081429;28;20703;-62
2023/12/19 04:10:09;;;;;;;12.80;8.90;;;4.00;95.50;;;;;;5083044;28;20231;-62
2023/12/19 04:12:36;;;;;;;14.20;8.43;;;4.00;95.50;;;;;;5079770;28;20581;-63
2023/12/19 04:15:04;;;;;;;12.30;8.40;;;4.00;95.60;;;;;;5084944;28;20199;-63
2023/12/19 04:17:31;;;;;;;16.03;8.23;;;4.00;95.60;;;;;;5080510;28;20235;-63
2023/12/19 04:19:58;;;;;;;17.27;8.90;;;4.00;95.60;;;;;;5080000;28;20292;-63
2023/12/19 04:22:25;;;;;;;16.77;9.07;;;4.10;95.60;;;;;;5085347;28;20266;-63
2023/12/19 04:24:52;;;;;;;16.67;8.53;;;4.10;95.60;;;;;;5081032;28;20627;-63
2023/12/19 04:27:19;;;;;;;14.13;8.53;;;4.10;95.70;;;;;;5085632;28;20200;-63
2023/12/19 04:29:47;;;;;;;11.00;7.37;;;4.10;95.70;;;;;;5093461;28;20238;-63
2023/12/19 04:32:14;;;;;;;12.10;7.77;;;4.10;95.60;;;;;;5082941;28;20193;-63
2023/12/19 04:34:41;;;;;;;14.63;8.23;;;4.10;95.60;;;;;;5083389;28;20223;-63
2023/12/19 04:37:08;;;;;;;15.20;8.80;;;4.10;95.60;;;;;;5078398;28;20221;-63
2023/12/19 04:39:35;;;;;;;12.57;8.17;;;4.10;95.60;;;;;;5067151;28;20697;-63
2023/12/19 04:42:06;;;;;;;17.10;8.67;;;4.10;95.70;;;;;;5069152;28;20263;-63
2023/12/19 04:44:34;;;;;;;13.90;8.97;;;4.10;95.70;;;;;;5081178;28;20201;-63
2023/12/19 04:47:02;;;;;;;16.20;9.07;;;4.10;95.70;;;;;;5075217;28;20222;-63
2023/12/19 04:49:29;;;;;;;15.63;10.00;;;4.10;95.70;;;;;;5081400;28;20202;-63
2023/12/19 04:51:56;;;;;;;18.20;9.53;;;4.10;95.70;;;;;;5090160;28;20197;-63
2023/12/19 04:54:23;;;;;;;17.60;8.47;;;4.10;95.70;;;;;;5082485;28;20537;-63
2023/12/19 04:56:50;;;;;;;16.13;8.83;;;4.10;95.70;;;;;;5091711;28;20220;-63
2023/12/19 04:59:18;;;;;;;14.13;8.53;;;4.20;95.70;;;;;;5084913;28;20228;-63
2023/12/19 05:01:45;;;;;;;14.67;8.90;;;4.20;95.70;;;;;;5080944;28;20240;-63
2023/12/19 05:04:12;;;;;;;12.97;8.97;;;4.20;95.70;;;;;;5088194;28;20527;-62
2023/12/19 05:06:40;;;;;;;15.83;8.97;;;4.20;95.70;;;;;;5079298;28;20209;-62
2023/12/19 05:09:08;;;;;;;17.50;8.53;;;4.10;95.60;;;;;;5084735;28;20211;-63
2023/12/19 05:11:35;;;;;;;14.47;8.47;;;4.10;95.70;;;;;;5081582;28;20224;-63
2023/12/19 05:14:03;;;;;;;14.37;8.00;;;4.10;95.70;;;;;;5086973;28;20737;-63
2023/12/19 05:16:30;;;;;;;14.77;8.27;;;4.20;95.70;;;;;;5079584;28;20269;-62
2023/12/19 05:18:57;;;;;;;16.53;8.33;;;4.10;95.70;;;;;;5081826;28;20538;-63
2023/12/19 05:21:24;;;;;;;14.17;8.57;;;4.20;95.70;;;;;;5086896;28;20197;-63
2023/12/19 05:23:51;;;;;;;15.23;8.80;;;4.20;95.80;;;;;;5079548;28;20208;-63
2023/12/19 05:26:18;;;;;;;12.67;8.50;;;4.20;95.80;;;;;;5086084;28;20205;-63
2023/12/19 05:28:45;;;;;;;14.00;8.03;;;4.20;95.80;;;;;;5079513;28;20192;-63
2023/12/19 05:31:14;;;;;;;13.27;7.97;;;4.30;95.90;;;;;;5098966;28;20211;-63
2023/12/19 05:33:42;;;;;;;13.97;7.70;;;4.30;95.80;;;;;;5065122;28;20212;-62
2023/12/19 05:36:12;;;;;;;14.50;8.20;;;4.30;95.70;;;;;;5063581;28;20216;-62
2023/12/19 05:38:39;;;;;;;14.33;8.07;;;4.30;95.70;;;;;;5079403;28;20197;-62
2023/12/19 05:41:07;;;;;;;11.20;8.27;;;4.30;95.60;;;;;;5081699;28;20247;-62
2023/12/19 05:43:34;;;;;;;10.87;8.27;;;4.30;95.60;;;;;;5076739;28;20197;-63
2023/12/19 05:46:02;;;;;;;15.97;7.70;;;4.20;95.50;;;;;;5068254;28;20241;-63
2023/12/19 05:48:29;;;;;;;12.40;8.03;;;4.20;95.50;;;;;;5079172;28;20274;-63
2023/12/19 05:50:57;;;;;;;10.73;7.20;;;4.20;95.50;;;;;;5059686;28;20269;-63
2023/12/19 05:53:24;;;;;;;12.90;7.70;;;4.20;95.60;;;;;;5085367;28;20681;-63
2023/12/19 05:55:51;;;;;;;10.67;7.50;;;4.20;95.60;;;;;;5082261;28;20236;-63
2023/12/19 05:58:18;;;;;;;10.47;7.30;;;4.10;95.60;;;;;;5080027;28;20646;-63
2023/12/19 06:00:47;;;;;;;11.70;7.20;;;4.10;95.50;;;;;;5092800;28;20969;-63
2023/12/19 06:03:14;;;;;;;9.50;6.93;;;4.10;95.50;;;;;;5084273;28;20560;-63
2023/12/19 06:05:41;;;;;;;10.77;7.63;;;4.10;95.50;;;;;;5083802;28;20209;-62
2023/12/19 06:08:08;;;;;;;12.33;7.50;;;4.10;95.50;;;;;;5081957;28;20220;-63
2023/12/19 06:10:35;;;;;;;12.63;7.37;;;4.10;95.50;;;;;;5058998;28;20284;-62
2023/12/19 06:13:02;;;;;;;8.77;6.70;;;4.00;95.50;;;;;;5088381;28;20236;-63
2023/12/19 06:15:30;;;;;;;11.27;6.87;;;4.00;95.50;;;;;;5086366;28;20196;-63
2023/12/19 06:17:57;;;;;;;11.27;6.70;;;4.00;95.50;;;;;;5084441;28;20717;-62
2023/12/19 06:20:24;;;;;;;11.17;6.50;;;4.00;95.50;;;;;;5081546;28;20201;-63
2023/12/19 06:22:51;;;;;;;11.00;7.13;;;3.90;95.40;;;;;;5085878;28;20193;-63
2023/12/19 06:25:18;;;;;;;8.73;6.50;;;3.90;95.50;;;;;;5087152;28;20196;-62
2023/12/19 06:27:45;;;;;;;15.53;6.90;;;3.90;95.50;;;;;;5086637;28;20665;-63
2023/12/19 06:30:13;;;;;;;9.47;6.07;;;3.90;95.50;;;;;;5089403;28;20232;-63
2023/12/19 06:32:53;;;;;;;13.03;6.00;;;3.80;95.50;;;;;;5091813;28;20211;-62
2023/12/19 06:35:21;;;;;;;9.27;5.90;;;3.90;95.60;;;;;;5082995;28;20662;-62
2023/12/19 06:37:48;;;;;;;10.93;6.43;;;3.80;95.60;;;;;;5084394;28;20214;-62
2023/12/19 06:40:16;;;;;;;12.03;6.30;;;3.80;95.60;;;;;;5091433;28;20641;-62
2023/12/19 06:42:44;;;;;;;10.07;6.57;;;3.80;95.60;;;;;;5082598;28;20232;-62
2023/12/19 06:45:12;;;;;;;13.23;7.70;;;3.80;95.60;;;;;;5080922;28;20222;-62
2023/12/19 06:47:39;;;;;;;12.23;7.40;;;3.80;95.60;;;;;;5085837;28;20225;-62
2023/12/19 06:50:07;;;;;;;8.90;6.40;;;3.80;95.90;;;;;;5083581;28;20218;-62
2023/12/19 06:52:34;;;;;;;16.30;6.90;;;3.80;95.60;;;;;;5080951;28;20205;-62
2023/12/19 06:55:01;;;;;;;12.37;7.70;;;3.80;95.70;;;;;;5093034;28;20823;-63
2023/12/19 06:57:28;;;;;;;15.43;6.60;;;3.90;95.70;;;;;;5081896;28;20209;-63
2023/12/19 06:59:56;;;;;;;12.40;6.57;;;3.90;95.70;;;;;;5083780;28;20201;-63
2023/12/19 07:02:23;;;;;;;8.60;5.60;;;3.90;95.70;;;;;;5086200;28;20236;-62
2023/12/19 07:04:50;;;;;;;10.63;6.33;;;3.90;95.70;;;;;;5078181;28;20199;-62
2023/12/19 07:07:17;;;;;;;13.63;6.77;;;4.00;95.70;;;;;;5079406;28;20222;-63
2023/12/19 07:09:44;;;;;;;7.10;5.97;;;4.00;95.70;;;;;;5082313;28;20736;-62
2023/12/19 07:12:11;;;;;;;11.87;6.43;;;4.00;95.70;;;;;;5082298;28;20513;-63
2023/12/19 07:14:38;;;;;;;9.67;5.73;;;4.10;95.70;;;;;;5085148;28;20593;-62
2023/12/19 07:17:05;;;;;;;9.83;4.77;;;4.10;95.70;;;;;;5084995;28;20566;-62
2023/12/19 07:19:33;;;;;;;9.60;5.57;;;4.10;95.60;;;;;;5082783;28;20200;-63
2023/12/19 07:22:01;;;;;;;5.70;4.47;;;4.10;95.90;;;;;;5083831;28;20258;-62
2023/12/19 07:24:29;;;;;;;8.73;4.73;;;4.20;95.60;;;;;;5083289;28;20197;-62
2023/12/19 07:26:59;;;;;;;8.53;4.87;;;4.20;95.60;;;;;;5085691;28;20235;-62
2023/12/19 07:29:26;;;;;;;8.40;4.90;;;4.30;95.60;;;;;;5087179;28;20202;-62
2023/12/19 07:31:53;;;;;;;7.00;4.27;;;4.30;95.50;;;;;;5083062;28;20271;-62
2023/12/19 07:34:21;;;;;;;6.47;4.47;;;4.40;95.50;;;;;;5078558;28;20201;-62
2023/12/19 07:36:48;;;;;;;8.07;4.27;;;4.50;95.50;;;;;;5084023;28;20213;-62
2023/12/19 07:39:15;;;;;;;7.03;4.20;;;4.60;95.40;;;;;;5083340;28;20204;-62
2023/12/19 07:41:42;;;;;;;7.43;4.40;;;4.60;95.30;;;;;;5085340;28;20291;-63
2023/12/19 07:44:09;;;;;;;6.90;4.63;;;4.70;95.20;;;;;;5080455;28;20557;-63
2023/12/19 07:46:41;;;;;;;7.53;4.30;;;4.80;95.10;;;;;;5081389;28;20522;-63
2023/12/19 07:49:12;;;;;;;7.83;4.27;;;4.80;95.10;;;;;;5087381;28;20208;-62
2023/12/19 07:51:39;;;;;;;9.57;4.70;;;4.90;95.00;;;;;;5087672;28;20220;-63
2023/12/19 07:54:07;;;;;;;6.90;4.90;;;4.90;94.90;;;;;;5082829;28;20194;-62
2023/12/19 07:56:40;;;;;;;7.10;4.23;;;5.00;94.90;;;;;;5078026;28;20660;-63
2023/12/19 07:59:07;;;;;;;8.13;4.67;;;5.00;94.80;;;;;;5082687;28;20200;-63
2023/12/19 08:01:34;;;;;;;6.10;4.63;;;5.10;94.70;;;;;;5080895;28;20667;-63
2023/12/19 08:04:01;;;;;;;7.27;4.20;;;5.10;94.70;;;;;;5088451;28;20210;-62
2023/12/19 08:06:29;;;;;;;6.37;4.80;;;5.20;94.70;;;;;;5083968;28;20196;-63
2023/12/19 08:08:57;;;;;;;7.43;4.93;;;5.20;94.70;;;;;;5080806;28;20198;-63
2023/12/19 08:11:24;;;;;;;7.10;4.47;;;5.30;94.70;;;;;;5081656;28;20201;-63
2023/12/19 08:13:52;;;;;;;7.17;4.83;;;5.40;94.70;;;;;;5084176;28;20198;-63
2023/12/19 08:16:20;;;;;;;10.50;4.73;;;5.40;94.60;;;;;;5083788;28;20545;-63
2023/12/19 08:18:50;;;;;;;10.53;4.30;;;5.50;94.60;;;;;;5081486;28;20206;-63
2023/12/19 08:21:19;;;;;;;6.90;4.30;;;5.60;94.60;;;;;;5079085;28;20289;-63
2023/12/19 08:23:48;;;;;;;9.50;4.50;;;5.60;94.50;;;;;;5083188;28;20571;-63
2023/12/19 08:26:15;;;;;;;8.03;4.60;;;5.70;94.40;;;;;;5086576;28;20200;-63
2023/12/19 08:28:42;;;;;;;7.57;3.97;;;5.70;94.40;;;;;;5086455;28;20233;-63
2023/12/19 08:31:09;;;;;;;6.57;3.90;;;5.80;94.40;;;;;;5084615;28;20292;-63
2023/12/19 08:33:38;;;;;;;6.27;3.83;;;5.80;94.30;;;;;;5095889;28;20212;-63
2023/12/19 08:36:06;;;;;;;6.47;4.17;;;5.90;94.30;;;;;;5079766;28;20233;-63
2023/12/19 08:38:53;;;;;;;10.40;4.27;;;5.90;94.30;;;;;;5080139;28;20209;-63
2023/12/19 08:41:20;;;;;;;7.27;4.20;;;6.10;94.40;;;;;;5085460;28;20216;-63
2023/12/19 08:43:47;;;;;;;7.87;4.93;;;6.10;94.30;;;;;;5082848;28;20222;-62
2023/12/19 08:46:18;;;;;;;5.47;4.37;;;6.20;94.60;;;;;;5079235;28;20291;-63
2023/12/19 08:48:48;;;;;;;8.53;4.07;;;6.30;94.30;;;;;;5081868;28;20212;-62
2023/12/19 08:51:16;;;;;;;7.53;4.57;;;6.40;94.20;;;;;;5081954;28;20578;-63
2023/12/19 08:53:43;;;;;;;8.10;4.17;;;6.50;94.20;;;;;;5074114;28;20252;-63
2023/12/19 08:56:10;;;;;;;8.53;5.03;;;6.60;94.20;;;;;;5083018;28;20490;-62
2023/12/19 08:58:37;;;;;;;7.07;5.07;;;6.70;94.10;;;;;;5079606;28;20554;-62
2023/12/19 09:01:04;;;;;;;7.67;4.60;;;6.80;94.10;;;;;;5080218;28;20227;-63
2023/12/19 09:03:31;;;;;;;5.37;4.27;;;7.00;94.30;;;;;;5080073;28;20255;-62
2023/12/19 09:05:58;;;;;;;7.20;4.10;;;7.00;94.00;;;;;;5083972;28;20197;-63
2023/12/19 09:08:25;;;;;;;7.43;3.97;;;7.20;93.90;;;;;;5082486;28;20219;-62
2023/12/19 09:10:52;;;;;;;6.37;4.27;;;7.30;93.90;;;;;;5077410;28;20209;-63
2023/12/19 09:13:21;;;;;;;5.53;4.00;;;7.40;93.80;;;;;;5068076;28;20539;-63
2023/12/19 09:15:49;;;;;;;5.57;4.17;;;7.50;93.70;;;;;;5080916;28;20311;-63
2023/12/19 09:18:17;;;;;;;7.20;4.97;;;7.60;93.60;;;;;;5081901;28;20206;-63
2023/12/19 09:20:45;;;;;;;5.17;3.53;;;7.70;93.50;;;;;;5086341;28;20274;-63
2023/12/19 09:23:12;;;;;;;7.57;4.73;;;7.80;93.40;;;;;;5089525;28;20193;-63
2023/12/19 09:25:39;;;;;;;6.23;3.83;;;7.90;93.30;;;;;;5085632;28;20196;-63
2023/12/19 09:28:06;;;;;;;8.13;4.40;;;8.00;93.20;;;;;;5083235;28;20208;-63
2023/12/19 09:30:33;;;;;;;5.77;4.13;;;8.10;93.10;;;;;;5081883;28;20319;-63
2023/12/19 09:33:00;;;;;;;5.63;4.57;;;8.20;93.10;;;;;;5085633;28;20268;-63
2023/12/19 09:35:27;;;;;;;9.77;4.60;;;8.30;93.00;;;;;;5079975;28;20215;-63
2023/12/19 09:38:01;;;;;;;8.43;4.90;;;8.40;93.00;;;;;;5077592;28;20220;-63
2023/12/19 09:40:31;;;;;;;9.20;5.13;;;8.50;92.90;;;;;;5081301;28;20587;-63
2023/12/19 09:42:59;;;;;;;14.80;5.37;;;8.60;92.80;;;;;;5083006;28;20199;-63
2023/12/19 09:45:26;;;;;;;5.13;4.07;;;8.60;92.80;;;;;;5081509;28;20721;-63
2023/12/19 09:48:02;;;;;;;5.73;4.47;;;8.70;92.80;;;;;;5081243;28;20276;-63
2023/12/19 09:50:29;;;;;;;8.40;4.57;;;8.80;92.70;;;;;;5083131;28;20638;-62
2023/12/19 09:52:57;;;;;;;6.47;5.17;;;8.90;92.70;;;;;;5081661;28;20208;-62
2023/12/19 09:55:31;;;;;;;6.80;4.97;;;9.00;92.70;;;;;;5084580;28;20195;-63
2023/12/19 09:58:00;;;;;;;7.73;5.63;;;9.10;92.70;;;;;;5079241;28;20213;-63
2023/12/19 10:00:32;;;;;;;7.73;5.30;;;9.20;92.60;;;;;;5078812;28;20191;-62
2023/12/19 10:02:59;;;;;;;9.33;6.33;;;9.30;92.40;;;;;;5077778;28;20190;-63
2023/12/19 10:05:27;;;;;;;10.30;6.60;;;9.30;92.30;;;;;;5082090;28;20208;-62
2023/12/19 10:07:57;;;;;;;11.63;6.63;;;9.40;92.20;;;;;;5078891;28;20249;-62
2023/12/19 10:10:53;;;;;;;11.17;7.20;;;9.50;92.10;;;;;;5069874;28;20204;-62
2023/12/19 10:13:33;;;;;;;11.90;7.47;;;9.60;91.70;;;;;;5077983;28;20632;-62
2023/12/19 10:16:06;;;;;;;11.93;7.30;;;9.70;91.10;;;;;;5081657;28;20203;-63
2023/12/19 10:18:54;;;;;;;12.63;8.70;;;9.80;91.10;;;;;;5085436;28;20760;-62
2023/12/19 10:21:24;;;;;;;12.83;9.17;;;9.80;91.00;;;;;;5087401;28;20201;-62
2023/12/19 10:23:52;;;;;;;16.13;10.37;;;9.90;90.80;;;;;;5064151;28;20200;-62
2023/12/19 10:26:28;;;;;;;13.50;9.77;;;10.00;90.00;;;;;;5081943;28;20642;-63
2023/12/19 10:28:59;;;;;;;17.33;10.73;;;10.00;89.70;;;;;;5077876;28;20298;-63
2023/12/19 10:31:26;;;;;;;14.30;10.17;;;10.10;90.00;;;;;;5084315;28;20216;-62
2023/12/19 10:33:56;;;;;;;16.10;11.07;;;10.10;90.10;;;;;;5079546;28;20192;-63
2023/12/19 10:36:25;;;;;;;17.40;11.23;;;10.20;90.10;;;;;;5081199;28;20213;-63
2023/12/19 10:38:54;;;;;;;19.10;12.90;;;10.30;90.00;;;;;;5083241;28;20212;-63
2023/12/19 10:41:25;;;;;;;19.53;11.93;;;10.30;89.40;;;;;;5080072;28;20255;-63
2023/12/19 10:43:56;;;;;;;20.37;13.97;;;10.30;88.80;;;;;;5076426;28;20189;-63
2023/12/19 10:46:26;;;;;;;20.40;14.47;;;10.40;88.80;;;;;;5082683;28;20274;-63
2023/12/19 10:49:04;;;;;;;22.47;13.50;;;10.50;89.00;;;;;;5073664;28;20535;-62
2023/12/19 10:51:32;;;;;;;24.80;16.10;;;10.50;89.20;;;;;;5089112;28;20289;-62
2023/12/19 10:54:09;;;;;;;25.80;16.33;;;10.60;88.90;;;;;;5081458;28;20230;-62
2023/12/19 10:57:06;;;;;;;21.80;15.73;;;10.70;88.80;;;;;;5073783;28;20265;-62
2023/12/19 11:00:13;;;;;;;21.10;15.80;;;10.70;89.00;;;;;;5084549;28;20205;-63
2023/12/19 11:02:45;;;;;;;24.17;16.27;;;10.90;89.10;;;;;;5092549;28;20296;-62
2023/12/19 11:05:28;;;;;;;21.30;15.90;;;11.00;88.40;;;;;;5083246;28;20197;-63
2023/12/19 11:08:01;;;;;;;21.23;15.73;;;11.10;88.70;;;;;;5076635;28;20189;-63
2023/12/19 11:10:36;;;;;;;20.93;15.30;;;11.20;89.20;;;;;;5089035;28;20663;-63
2023/12/19 11:13:04;;;;;;;20.27;15.97;;;11.30;89.60;;;;;;5081599;28;20626;-63
2023/12/19 11:15:34;;;;;;;21.30;15.87;;;11.40;89.70;;;;;;5087598;28;20202;-63
2023/12/19 11:18:15;;;;;;;23.73;16.23;;;11.50;89.50;;;;;;5091314;28;20956;-63
2023/12/19 11:21:02;;;;;;;23.40;17.27;;;11.60;89.50;;;;;;5082167;28;20200;-62
2023/12/19 11:23:48;;;;;;;23.10;15.67;;;11.70;88.50;;;;;;5081559;28;20620;-63
2023/12/19 11:26:20;;;;;;;24.33;17.67;;;11.80;88.30;;;;;;5083017;28;20230;-62
2023/12/19 11:28:47;;;;;;;26.03;16.93;;;11.90;88.20;;;;;;5087554;28;20623;-62
2023/12/19 11:31:36;;;;;;;22.47;16.13;;;12.10;87.80;;;;;;5081569;28;20201;-63
2023/12/19 11:34:23;;;;;;;22.77;16.40;;;12.20;87.60;;;;;;5081651;28;20207;-63
2023/12/19 11:37:04;;;;;;;27.50;18.57;;;12.30;87.80;;;;;;5063047;28;20233;-63
2023/12/19 11:39:39;;;;;;;33.43;21.53;;;12.40;86.80;;;;;;5084477;28;20233;-63
2023/12/19 11:42:06;;;;;;;28.87;19.27;;;12.50;86.30;;;;;;5079108;28;20201;-62
2023/12/19 11:44:35;;;;;;;26.10;18.33;;;12.60;86.40;;;;;;5068897;28;20213;-62
2023/12/19 11:47:15;;;;;;;27.20;17.40;;;12.70;86.50;;;;;;5083190;28;20224;-63
2023/12/19 11:49:43;;;;;;;31.97;19.23;;;12.80;86.60;;;;;;5081119;28;20197;-63
2023/12/19 11:52:33;;;;;;;26.20;18.20;;;12.80;86.40;;;;;;5091151;28;20201;-63
2023/12/19 11:55:02;;;;;;;27.73;18.70;;;13.00;86.40;;;;;;5081439;28;20204;-63
2023/12/19 11:57:31;;;;;;;24.80;16.80;;;13.00;86.90;;;;;;5076623;28;20212;-63
2023/12/19 12:00:01;;;;;;;25.33;17.37;;;13.20;86.40;;;;;;5078188;28;20270;-63
2023/12/19 12:02:37;;;;;;;29.47;18.77;;;13.20;86.30;;;;;;5081332;28;20570;-63
2023/12/19 12:05:18;;;;;;;26.20;17.97;;;13.30;86.00;;;;;;5074608;28;20267;-63
2023/12/19 12:07:47;;;;;;;29.87;18.70;;;13.40;85.60;;;;;;5081905;28;20351;-63
2023/12/19 12:10:24;;;;;;;29.73;19.70;;;13.50;85.10;;;;;;5086856;28;20207;-63
2023/12/19 12:12:51;;;;;;;28.70;18.60;;;13.50;85.00;;;;;;5080323;28;20278;-61
2023/12/19 12:15:25;;;;;;;26.93;19.13;;;13.60;84.80;;;;;;5077896;28;20207;-63
2023/12/19 12:18:07;;;;;;;25.87;17.73;;;13.60;84.60;;;;;;5088638;28;20254;-63
2023/12/19 12:20:34;;;;;;;23.93;16.87;;;13.70;84.60;;;;;;5083456;28;20204;-63
2023/12/19 12:23:03;;;;;;;23.73;17.03;;;13.80;84.30;;;;;;5085606;28;20258;-63
2023/12/19 12:25:33;;;;;;;25.87;17.73;;;13.80;83.90;;;;;;5082809;28;20219;-63
2023/12/19 12:28:11;;;;;;;24.53;17.43;;;13.80;83.70;;;;;;5085147;28;20258;-63
2023/12/19 12:30:39;;;;;;;24.70;16.90;;;13.90;83.70;;;;;;5080366;28;20673;-63
2023/12/19 12:33:07;;;;;;;21.80;15.80;;;13.90;83.40;;;;;;5072069;28;20634;-63
2023/12/19 12:35:36;;;;;;;26.77;14.93;;;13.90;83.30;;;;;;5081758;28;20204;-63
2023/12/19 12:38:16;;;;;;;26.07;15.83;;;14.00;83.10;;;;;;5079600;28;20300;-63
2023/12/19 12:41:00;;;;;;;23.23;15.87;;;14.00;82.50;;;;;;5082680;28;20208;-63
2023/12/19 12:43:38;;;;;;;21.97;14.23;;;14.00;82.00;;;;;;5081822;28;20535;-63
2023/12/19 12:46:13;;;;;;;20.83;14.63;;;14.00;81.60;;;;;;5078519;28;20567;-63
2023/12/19 12:48:53;;;;;;;19.77;14.40;;;14.10;81.40;;;;;;5087402;28;20941;-63
2023/12/19 12:51:21;;;;;;;23.93;14.43;;;14.10;81.20;;;;;;5084560;28;20220;-63
2023/12/19 12:53:55;;;;;;;21.17;12.07;;;14.10;81.00;;;;;;5079904;28;20202;-63